Terminal Aerodrome Forecast
Issued by NWS Sterling, VA

Current Version | Previous Version | Text Only | Print | Product List | Glossary On
Versions: 1 2 3 4 5 6 7 8 9 10 11 12 13 14
006
FTUS41 KLWX 281457 AAA
TAFMRB
TAF AMD
KMRB 281457Z 2815/2912 24003KT 5SM -RA BR SCT012 BKN023 OVC080
     FM282000 08005KT 3SM +SHRA VCTS OVC030CB
     FM290000 08005KT 3SM +SHRA OVC010
     FM290500 04006KT 3SM SHRA OVC015=

USA.gov is the U.S. government's official web portal to all federal, state and local government web resources and services.